Linden, North Carolina
Current Conditions -  °F | °C
As of 4:55 PM on Monday 20 Oct 2014 (Local Time) from KHRJ Reporting Station
Clear Clear  
Wind Chill: 72°   Ceiling: Unl
Heat Index: 72°   Visibility: 10mi
Dew Point: 46°   Wind: 6mph
Humidity: 39%   Direction: 170°S
Pressure: 29.99"   Gusts: NA
Location:  35.25°N, 78.75°W
Report Text: KHRJ 202055Z AUTO 17005KT 10SM CLR 22/08 A2999 RMK AO2 T02210076
Loading
Personal Weather Stations






























Interactive Weather Map
Tropical Storm Tracking
New forecast layout! Learn more

10-Day Weather Forecast

Advertisements
Track Severe Weather on mobile